sensor_id;sensor_type;location;lat;lon;timestamp;pressure;altitude;pressure_sealevel;temperature;humidity
81354;BME280;70810;52.038;8.524;2024-02-15T00:00:26;100390.03;;;10.90;100.00
81354;BME280;70810;52.038;8.524;2024-02-15T00:02:57;100399.06;;;10.87;100.00
81354;BME280;70810;52.038;8.524;2024-02-15T00:05:24;100395.06;;;10.96;100.00
81354;BME280;70810;52.038;8.524;2024-02-15T00:07:51;100391.97;;;10.86;100.00
81354;BME280;70810;52.038;8.524;2024-02-15T00:10:21;100389.53;;;10.81;100.00
81354;BME280;70810;52.038;8.524;2024-02-15T00:12:50;100397.31;;;10.86;100.00
81354;BME280;70810;52.038;8.524;2024-02-15T00:15:18;100390.81;;;10.92;100.00
81354;BME280;70810;52.038;8.524;2024-02-15T00:17:49;100401.00;;;11.02;100.00
81354;BME280;70810;52.038;8.524;2024-02-15T00:20:25;100390.88;;;10.90;100.00
81354;BME280;70810;52.038;8.524;2024-02-15T00:22:52;100400.44;;;10.96;100.00
81354;BME280;70810;52.038;8.524;2024-02-15T00:25:21;100390.03;;;10.90;100.00
81354;BME280;70810;52.038;8.524;2024-02-15T00:27:49;100391.81;;;10.89;100.00
81354;BME280;70810;52.038;8.524;2024-02-15T00:30:23;100399.00;;;10.89;100.00
81354;BME280;70810;52.038;8.524;2024-02-15T00:32:51;100393.00;;;10.83;100.00
81354;BME280;70810;52.038;8.524;2024-02-15T00:35:20;100392.91;;;10.85;100.00
81354;BME280;70810;52.038;8.524;2024-02-15T00:37:48;100394.34;;;10.92;100.00
81354;BME280;70810;52.038;8.524;2024-02-15T00:40:15;100392.19;;;11.00;100.00
81354;BME280;70810;52.038;8.524;2024-02-15T00:42:42;100366.22;;;10.82;100.00
81354;BME280;70810;52.038;8.524;2024-02-15T00:45:11;100390.16;;;10.87;100.00
81354;BME280;70810;52.038;8.524;2024-02-15T00:47:39;100376.25;;;10.78;100.00
81354;BME280;70810;52.038;8.524;2024-02-15T00:50:10;100387.41;;;10.88;100.00
81354;BME280;70810;52.038;8.524;2024-02-15T00:52:38;100395.47;;;10.88;100.00
81354;BME280;70810;52.038;8.524;2024-02-15T00:55:07;100379.56;;;10.83;100.00
81354;BME280;70810;52.038;8.524;2024-02-15T00:57:35;100352.63;;;10.68;100.00
81354;BME280;70810;52.038;8.524;2024-02-15T01:00:02;100381.91;;;10.91;100.00
81354;BME280;70810;52.038;8.524;2024-02-15T01:02:34;100380.28;;;10.87;100.00
81354;BME280;70810;52.038;8.524;2024-02-15T01:05:03;100397.25;;;10.88;100.00
81354;BME280;70810;52.038;8.524;2024-02-15T01:07:32;100396.31;;;10.89;100.00
81354;BME280;70810;52.038;8.524;2024-02-15T01:10:00;100396.19;;;10.92;100.00
81354;BME280;70810;52.038;8.524;2024-02-15T01:12:30;100401.13;;;10.82;100.00
81354;BME280;70810;52.038;8.524;2024-02-15T01:14:57;100402.69;;;10.86;100.00
81354;BME280;70810;52.038;8.524;2024-02-15T01:17:23;100390.94;;;10.89;100.00
81354;BME280;70810;52.038;8.524;2024-02-15T01:19:52;100393.34;;;10.95;100.00
81354;BME280;70810;52.038;8.524;2024-02-15T01:22:21;100391.16;;;10.84;100.00
81354;BME280;70810;52.038;8.524;2024-02-15T01:24:50;100399.00;;;10.89;100.00
81354;BME280;70810;52.038;8.524;2024-02-15T01:27:17;100406.91;;;10.92;100.00
81354;BME280;70810;52.038;8.524;2024-02-15T01:29:45;100392.38;;;10.96;100.00
81354;BME280;70810;52.038;8.524;2024-02-15T01:32:12;100389.72;;;10.96;100.00
81354;BME280;70810;52.038;8.524;2024-02-15T01:34:40;100392.47;;;10.94;100.00
81354;BME280;70810;52.038;8.524;2024-02-15T01:37:07;100389.63;;;10.97;100.00
81354;BME280;70810;52.038;8.524;2024-02-15T01:39:35;100399.13;;;11.05;100.00
81354;BME280;70810;52.038;8.524;2024-02-15T01:42:04;100390.66;;;10.95;100.00
81354;BME280;70810;52.038;8.524;2024-02-15T01:44:31;100406.28;;;10.87;100.00
81354;BME280;70810;52.038;8.524;2024-02-15T01:46:59;100402.63;;;10.88;100.00
81354;BME280;70810;52.038;8.524;2024-02-15T01:49:27;100402.69;;;10.86;100.00
81354;BME280;70810;52.038;8.524;2024-02-15T01:51:57;100397.25;;;10.88;100.00
81354;BME280;70810;52.038;8.524;2024-02-15T01:54:27;100409.75;;;10.89;100.00
81354;BME280;70810;52.038;8.524;2024-02-15T01:56:54;100396.41;;;10.87;100.00
81354;BME280;70810;52.038;8.524;2024-02-15T01:59:25;100396.25;;;10.90;100.00
81354;BME280;70810;52.038;8.524;2024-02-15T02:01:52;100399.47;;;10.79;100.00
81354;BME280;70810;52.038;8.524;2024-02-15T02:04:19;100401.03;;;10.83;100.00
81354;BME280;70810;52.038;8.524;2024-02-15T02:06:46;100394.75;;;10.85;100.00
81354;BME280;70810;52.038;8.524;2024-02-15T02:09:13;100398.06;;;10.90;100.00
81354;BME280;70810;52.038;8.524;2024-02-15T02:11:40;100397.13;;;10.91;100.00
81354;BME280;70810;52.038;8.524;2024-02-15T02:14:07;100386.59;;;10.86;100.00
81354;BME280;70810;52.038;8.524;2024-02-15T02:16:36;100382.22;;;10.66;100.00
81354;BME280;70810;52.038;8.524;2024-02-15T02:19:04;100393.00;;;10.83;100.00
81354;BME280;70810;52.038;8.524;2024-02-15T02:21:35;100386.53;;;10.88;100.00
81354;BME280;70810;52.038;8.524;2024-02-15T02:24:11;100393.06;;;10.82;100.00
81354;BME280;70810;52.038;8.524;2024-02-15T02:26:40;100391.09;;;10.86;100.00
81354;BME280;70810;52.038;8.524;2024-02-15T02:29:08;100380.03;;;10.74;100.00
81354;BME280;70810;52.038;8.524;2024-02-15T02:31:36;100391.16;;;10.84;100.00
81354;BME280;70810;52.038;8.524;2024-02-15T02:34:03;100385.66;;;10.87;100.00
81354;BME280;70810;52.038;8.524;2024-02-15T02:36:31;100384.88;;;10.85;100.00
81354;BME280;70810;52.038;8.524;2024-02-15T02:38:58;100385.38;;;10.93;100.00
81354;BME280;70810;52.038;8.524;2024-02-15T02:41:26;100366.38;;;10.79;100.00
81354;BME280;70810;52.038;8.524;2024-02-15T02:43:55;100378.31;;;10.91;100.00
81354;BME280;70810;52.038;8.524;2024-02-15T02:46:22;100385.88;;;11.01;100.00
81354;BME280;70810;52.038;8.524;2024-02-15T02:48:49;100387.47;;;10.87;100.00
81354;BME280;70810;52.038;8.524;2024-02-15T02:51:17;100384.59;;;10.91;100.00
81354;BME280;70810;52.038;8.524;2024-02-15T02:53:43;100386.84;;;10.81;100.00
81354;BME280;70810;52.038;8.524;2024-02-15T02:56:11;100378.72;;;10.83;100.00
81354;BME280;70810;52.038;8.524;2024-02-15T02:58:38;100392.38;;;10.96;100.00
81354;BME280;70810;52.038;8.524;2024-02-15T03:01:09;100378.41;;;10.89;100.00
81354;BME280;70810;52.038;8.524;2024-02-15T03:03:36;100388.28;;;10.89;100.00
81354;BME280;70810;52.038;8.524;2024-02-15T03:06:04;100389.19;;;10.88;100.00
81354;BME280;70810;52.038;8.524;2024-02-15T03:08:31;100381.91;;;10.91;100.00
81354;BME280;70810;52.038;8.524;2024-02-15T03:10:59;100385.59;;;10.89;100.00
81354;BME280;70810;52.038;8.524;2024-02-15T03:13:26;100376.75;;;10.87;100.00
81354;BME280;70810;52.038;8.524;2024-02-15T03:15:52;100392.31;;;10.97;100.00
81354;BME280;70810;52.038;8.524;2024-02-15T03:18:21;100389.00;;;10.92;100.00
81354;BME280;70810;52.038;8.524;2024-02-15T03:20:48;100396.41;;;10.87;100.00
81354;BME280;70810;52.038;8.524;2024-02-15T03:23:15;100391.75;;;10.91;100.00
81354;BME280;70810;52.038;8.524;2024-02-15T03:25:42;100389.06;;;10.91;100.00
81354;BME280;70810;52.038;8.524;2024-02-15T03:28:09;100371.22;;;10.71;100.00
81354;BME280;70810;52.038;8.524;2024-02-15T03:30:36;100379.94;;;10.95;100.00
81354;BME280;70810;52.038;8.524;2024-02-15T03:33:03;100386.09;;;10.97;100.00
81354;BME280;70810;52.038;8.524;2024-02-15T03:35:32;100383.34;;;10.98;100.00
81354;BME280;70810;52.038;8.524;2024-02-15T03:37:59;100383.97;;;11.04;100.00
81354;BME280;70810;52.038;8.524;2024-02-15T03:40:27;100389.41;;;11.02;100.00
81354;BME280;70810;52.038;8.524;2024-02-15T03:42:58;100392.25;;;10.99;100.00
81354;BME280;70810;52.038;8.524;2024-02-15T03:45:25;100385.38;;;10.93;100.00
81354;BME280;70810;52.038;8.524;2024-02-15T03:47:52;100382.63;;;10.95;100.00
81354;BME280;70810;52.038;8.524;2024-02-15T03:50:21;100393.03;;;11.01;100.00
81354;BME280;70810;52.038;8.524;2024-02-15T03:52:50;100393.03;;;11.01;100.00
81354;BME280;70810;52.038;8.524;2024-02-15T03:55:17;100395.56;;;11.04;100.00
81354;BME280;70810;52.038;8.524;2024-02-15T03:57:44;100404.88;;;10.97;100.00
81354;BME280;70810;52.038;8.524;2024-02-15T04:00:12;100397.03;;;10.92;100.00
81354;BME280;70810;52.038;8.524;2024-02-15T04:02:46;100398.53;;;10.98;100.00
81354;BME280;70810;52.038;8.524;2024-02-15T04:05:14;100394.16;;;10.97;100.00
81354;BME280;70810;52.038;8.524;2024-02-15T04:07:41;100387.81;;;10.98;100.00
81354;BME280;70810;52.038;8.524;2024-02-15T04:10:10;100390.59;;;10.96;100.00
81354;BME280;70810;52.038;8.524;2024-02-15T04:12:37;100388.56;;;11.01;100.00
81354;BME280;70810;52.038;8.524;2024-02-15T04:15:07;100398.41;;;11.01;100.00
81354;BME280;70810;52.038;8.524;2024-02-15T04:17:37;100395.78;;;10.99;100.00
81354;BME280;70810;52.038;8.524;2024-02-15T04:20:04;100400.16;;;11.02;100.00
81354;BME280;70810;52.038;8.524;2024-02-15T04:22:31;100378.41;;;10.89;100.00
81354;BME280;70810;52.038;8.524;2024-02-15T04:25:03;100400.22;;;11.00;100.00
81354;BME280;70810;52.038;8.524;2024-02-15T04:27:32;100388.47;;;11.03;100.00
81354;BME280;70810;52.038;8.524;2024-02-15T04:29:59;100390.66;;;10.95;100.00
81354;BME280;70810;52.038;8.524;2024-02-15T04:32:30;100388.13;;;10.92;100.00
81354;BME280;70810;52.038;8.524;2024-02-15T04:34:59;100367.97;;;10.83;100.00
81354;BME280;70810;52.038;8.524;2024-02-15T04:37:26;100397.19;;;10.89;100.00
81354;BME280;70810;52.038;8.524;2024-02-15T04:39:54;100395.59;;;10.85;100.00
81354;BME280;70810;52.038;8.524;2024-02-15T04:42:22;100390.75;;;10.93;100.00
81354;BME280;70810;52.038;8.524;2024-02-15T04:44:53;100380.44;;;10.84;100.00
81354;BME280;70810;52.038;8.524;2024-02-15T04:47:22;100393.84;;;10.84;100.00
81354;BME280;70810;52.038;8.524;2024-02-15T04:49:48;100393.13;;;10.80;100.00
81354;BME280;70810;52.038;8.524;2024-02-15T04:52:15;100388.09;;;10.74;100.00
81354;BME280;70810;52.038;8.524;2024-02-15T04:54:43;100399.75;;;10.73;100.00
81354;BME280;70810;52.038;8.524;2024-02-15T04:57:09;100395.22;;;10.74;100.00
81354;BME280;70810;52.038;8.524;2024-02-15T04:59:37;100389.94;;;10.72;100.00
81354;BME280;70810;52.038;8.524;2024-02-15T05:02:05;100401.78;;;10.68;100.00
81354;BME280;70810;52.038;8.524;2024-02-15T05:04:33;100398.81;;;10.74;100.00
81354;BME280;70810;52.038;8.524;2024-02-15T05:07:01;100404.31;;;10.71;100.00
81354;BME280;70810;52.038;8.524;2024-02-15T05:09:29;100397.91;;;10.74;100.00
81354;BME280;70810;52.038;8.524;2024-02-15T05:11:56;100389.28;;;10.67;100.00
81354;BME280;70810;52.038;8.524;2024-02-15T05:14:23;100386.03;;;10.60;100.00
81354;BME280;70810;52.038;8.524;2024-02-15T05:16:52;100381.38;;;10.64;100.00
81354;BME280;70810;52.038;8.524;2024-02-15T05:19:20;100385.81;;;10.65;100.00
81354;BME280;70810;52.038;8.524;2024-02-15T05:21:46;100387.72;;;10.63;100.00
81354;BME280;70810;52.038;8.524;2024-02-15T05:24:13;100391.63;;;10.56;100.00
81354;BME280;70810;52.038;8.524;2024-02-15T05:26:40;100390.09;;;10.50;100.00
81354;BME280;70810;52.038;8.524;2024-02-15T05:29:09;100381.97;;;10.52;100.00
81354;BME280;70810;52.038;8.524;2024-02-15T05:31:36;100389.66;;;10.59;100.00
81354;BME280;70810;52.038;8.524;2024-02-15T05:34:06;100381.69;;;10.58;100.00
81354;BME280;70810;52.038;8.524;2024-02-15T05:36:38;100373.13;;;10.50;100.00
81354;BME280;70810;52.038;8.524;2024-02-15T05:39:05;100370.53;;;10.48;100.00
81354;BME280;70810;52.038;8.524;2024-02-15T05:41:32;100369.59;;;10.49;100.00
81354;BME280;70810;52.038;8.524;2024-02-15T05:43:59;100368.50;;;10.53;100.00
81354;BME280;70810;52.038;8.524;2024-02-15T05:46:26;100373.13;;;10.50;100.00
81354;BME280;70810;52.038;8.524;2024-02-15T05:48:53;100363.41;;;10.47;100.00
81354;BME280;70810;52.038;8.524;2024-02-15T05:51:25;100369.66;;;10.48;100.00
81354;BME280;70810;52.038;8.524;2024-02-15T05:57:36;100366.09;;;10.47;100.00
81354;BME280;70810;52.038;8.524;2024-02-15T06:00:04;100368.69;;;10.49;100.00
81354;BME280;70810;52.038;8.524;2024-02-15T06:02:32;100364.16;;;10.51;100.00
81354;BME280;70810;52.038;8.524;2024-02-15T06:04:59;100371.25;;;10.52;100.00
81354;BME280;70810;52.038;8.524;2024-02-15T06:07:29;100363.34;;;10.49;100.00
81354;BME280;70810;52.038;8.524;2024-02-15T06:09:58;100374.06;;;10.49;100.00
81354;BME280;70810;52.038;8.524;2024-02-15T06:12:28;100374.72;;;10.54;100.00
81354;BME280;70810;52.038;8.524;2024-02-15T06:14:56;100364.81;;;10.56;100.00
81354;BME280;70810;52.038;8.524;2024-02-15T06:17:24;100366.53;;;10.57;100.00
81354;BME280;70810;52.038;8.524;2024-02-15T06:19:51;100367.56;;;10.54;100.00
81354;BME280;70810;52.038;8.524;2024-02-15T06:22:20;100365.66;;;10.56;100.00
81354;BME280;70810;52.038;8.524;2024-02-15T06:24:48;100356.53;;;10.60;100.00
81354;BME280;70810;52.038;8.524;2024-02-15T06:27:30;100355.81;;;10.57;100.00
81354;BME280;70810;52.038;8.524;2024-02-15T06:33:25;100360.97;;;10.61;100.00
81354;BME280;70810;52.038;8.524;2024-02-15T06:36:09;100364.63;;;10.59;100.00
81354;BME280;70810;52.038;8.524;2024-02-15T06:38:54;100356.53;;;10.60;100.00
81354;BME280;70810;52.038;8.524;2024-02-15T06:41:38;100325.97;;;10.45;100.00
81354;BME280;70810;52.038;8.524;2024-02-15T06:44:06;100361.75;;;10.63;100.00
81354;BME280;70810;52.038;8.524;2024-02-15T06:46:33;100362.91;;;10.58;100.00
81354;BME280;70810;52.038;8.524;2024-02-15T06:49:01;100362.19;;;10.54;100.00
81354;BME280;70810;52.038;8.524;2024-02-15T06:51:30;100361.03;;;10.60;100.00
81354;BME280;70810;52.038;8.524;2024-02-15T06:53:57;100352.91;;;10.61;100.00
81354;BME280;70810;52.038;8.524;2024-02-15T06:56:24;100341.31;;;10.61;100.00
81354;BME280;70810;52.038;8.524;2024-02-15T06:58:50;100333.47;;;10.56;100.00
81354;BME280;70810;52.038;8.524;2024-02-15T07:01:23;100333.47;;;10.56;100.00
81354;BME280;70810;52.038;8.524;2024-02-15T07:03:50;100338.91;;;10.55;100.00
81354;BME280;70810;52.038;8.524;2024-02-15T07:06:18;100330.59;;;10.61;100.00
81354;BME280;70810;52.038;8.524;2024-02-15T07:08:46;100323.75;;;10.54;100.00
81354;BME280;70810;52.038;8.524;2024-02-15T07:11:13;100325.56;;;10.53;100.00
81354;BME280;70810;52.038;8.524;2024-02-15T07:13:40;100330.72;;;10.58;100.00
81354;BME280;70810;52.038;8.524;2024-02-15T07:16:07;100334.34;;;10.57;100.00
81354;BME280;70810;52.038;8.524;2024-02-15T07:18:34;100334.34;;;10.57;100.00
81354;BME280;70810;52.038;8.524;2024-02-15T07:21:02;100345.72;;;10.62;100.00
81354;BME280;70810;52.038;8.524;2024-02-15T07:23:35;100343.03;;;10.62;100.00
81354;BME280;70810;52.038;8.524;2024-02-15T07:26:02;100324.34;;;10.60;99.83
81354;BME280;70810;52.038;8.524;2024-02-15T07:28:29;100338.09;;;10.72;99.45
81354;BME280;70810;52.038;8.524;2024-02-15T07:30:56;100342.63;;;10.71;99.73
81354;BME280;70810;52.038;8.524;2024-02-15T07:33:25;100350.88;;;10.67;99.25
81354;BME280;70810;52.038;8.524;2024-02-15T07:35:55;100354.72;;;10.80;99.00
81354;BME280;70810;52.038;8.524;2024-02-15T07:38:22;100353.84;;;10.79;99.12
81354;BME280;70810;52.038;8.524;2024-02-15T07:40:52;100362.53;;;10.85;98.72
81354;BME280;70810;52.038;8.524;2024-02-15T07:43:22;100356.44;;;10.81;98.20
81354;BME280;70810;52.038;8.524;2024-02-15T07:45:51;100359.28;;;10.78;98.63
81354;BME280;70810;52.038;8.524;2024-02-15T07:48:20;100363.63;;;10.80;98.70
81354;BME280;70810;52.038;8.524;2024-02-15T07:50:47;100366.31;;;10.80;99.02
81354;BME280;70810;52.038;8.524;2024-02-15T07:53:14;100366.00;;;10.87;98.36
81354;BME280;70810;52.038;8.524;2024-02-15T07:55:41;100364.75;;;10.94;97.57
81354;BME280;70810;52.038;8.524;2024-02-15T07:58:09;100366.03;;;11.04;97.09
81354;BME280;70810;52.038;8.524;2024-02-15T08:00:38;100369.53;;;11.06;97.19
81354;BME280;70810;52.038;8.524;2024-02-15T08:03:09;100365.25;;;11.02;96.95
81354;BME280;70810;52.038;8.524;2024-02-15T08:05:40;100356.56;;;10.97;97.03
81354;BME280;70810;52.038;8.524;2024-02-15T08:08:08;100362.25;;;11.08;96.59
81354;BME280;70810;52.038;8.524;2024-02-15T08:10:38;100357.84;;;11.07;96.84
81354;BME280;70810;52.038;8.524;2024-02-15T08:16:11;100350.72;;;11.06;96.54
81354;BME280;70810;52.038;8.524;2024-02-15T08:18:41;100352.25;;;11.12;96.38
81354;BME280;70810;52.038;8.524;2024-02-15T08:21:09;100342.75;;;11.05;96.49
81354;BME280;70810;52.038;8.524;2024-02-15T08:23:37;100344.28;;;11.10;96.24
81354;BME280;70810;52.038;8.524;2024-02-15T08:26:06;100340.63;;;11.11;96.27
81354;BME280;70810;52.038;8.524;2024-02-15T08:28:33;100334.97;;;11.17;96.47
81354;BME280;70810;52.038;8.524;2024-02-15T08:31:01;100337.44;;;11.22;95.91
81354;BME280;70810;52.038;8.524;2024-02-15T08:33:31;100339.78;;;11.11;96.39
81354;BME280;70810;52.038;8.524;2024-02-15T08:36:15;100322.81;;;11.10;96.41
81354;BME280;70810;52.038;8.524;2024-02-15T08:38:48;100331.16;;;11.22;96.21
81354;BME280;70810;52.038;8.524;2024-02-15T08:41:15;100318.50;;;11.06;96.47
81354;BME280;70810;52.038;8.524;2024-02-15T08:43:44;100337.88;;;11.13;96.57
81354;BME280;70810;52.038;8.524;2024-02-15T08:46:14;100333.00;;;11.21;96.72
81354;BME280;70810;52.038;8.524;2024-02-15T08:48:44;100327.63;;;11.21;96.66
81354;BME280;70810;52.038;8.524;2024-02-15T08:51:19;100327.78;;;11.18;96.84
81354;BME280;70810;52.038;8.524;2024-02-15T08:53:47;100314.41;;;10.99;97.54
81354;BME280;70810;52.038;8.524;2024-02-15T08:56:14;100311.56;;;11.02;98.27
81354;BME280;70810;52.038;8.524;2024-02-15T08:58:41;100305.44;;;11.00;98.83
81354;BME280;70810;52.038;8.524;2024-02-15T09:01:12;100305.56;;;10.97;98.96
81354;BME280;70810;52.038;8.524;2024-02-15T09:03:38;100316.72;;;11.07;99.03
81354;BME280;70810;52.038;8.524;2024-02-15T09:06:05;100312.84;;;11.12;98.88
81354;BME280;70810;52.038;8.524;2024-02-15T09:08:33;100315.75;;;11.08;99.33
81354;BME280;70810;52.038;8.524;2024-02-15T09:11:01;100323.09;;;11.04;99.35
81354;BME280;70810;52.038;8.524;2024-02-15T09:13:28;100319.47;;;11.05;99.81
81354;BME280;70810;52.038;8.524;2024-02-15T09:15:55;100311.00;;;10.95;99.58
81354;BME280;70810;52.038;8.524;2024-02-15T09:18:23;100317.09;;;10.99;100.00
81354;BME280;70810;52.038;8.524;2024-02-15T09:20:50;100313.28;;;11.03;100.00
81354;BME280;70810;52.038;8.524;2024-02-15T09:23:21;100293.72;;;11.01;99.76
81354;BME280;70810;52.038;8.524;2024-02-15T09:25:49;100305.09;;;11.06;100.00
81354;BME280;70810;52.038;8.524;2024-02-15T09:28:18;100311.03;;;11.13;100.00
81354;BME280;70810;52.038;8.524;2024-02-15T09:30:47;100302.91;;;11.14;99.82
81354;BME280;70810;52.038;8.524;2024-02-15T09:33:19;100313.78;;;11.11;100.00
81354;BME280;70810;52.038;8.524;2024-02-15T09:35:47;100329.59;;;11.17;99.94
81354;BME280;70810;52.038;8.524;2024-02-15T09:38:16;100325.22;;;11.15;100.00
81354;BME280;70810;52.038;8.524;2024-02-15T09:40:48;100347.47;;;11.18;100.00
81354;BME280;70810;52.038;8.524;2024-02-15T09:43:23;100346.72;;;11.15;100.00
81354;BME280;70810;52.038;8.524;2024-02-15T09:46:08;100351.50;;;11.08;100.00
81354;BME280;70810;52.038;8.524;2024-02-15T09:48:51;100354.94;;;11.12;100.00
81354;BME280;70810;52.038;8.524;2024-02-15T09:51:33;100353.41;;;11.06;100.00
81354;BME280;70810;52.038;8.524;2024-02-15T09:54:13;100352.47;;;11.07;100.00
81354;BME280;70810;52.038;8.524;2024-02-15T09:56:52;100357.00;;;11.07;100.00
81354;BME280;70810;52.038;8.524;2024-02-15T09:59:23;100344.56;;;11.04;100.00
81354;BME280;70810;52.038;8.524;2024-02-15T10:01:59;100348.63;;;11.13;100.00
81354;BME280;70810;52.038;8.524;2024-02-15T10:04:42;100342.75;;;11.05;100.00
81354;BME280;70810;52.038;8.524;2024-02-15T10:07:19;100352.47;;;11.07;100.00
81354;BME280;70810;52.038;8.524;2024-02-15T10:09:49;100351.50;;;11.08;100.00
81354;BME280;70810;52.038;8.524;2024-02-15T10:12:17;100353.03;;;11.14;100.00
81354;BME280;70810;52.038;8.524;2024-02-15T10:14:48;100351.22;;;11.14;100.00
81354;BME280;70810;52.038;8.524;2024-02-15T10:17:18;100348.63;;;11.13;100.00
81354;BME280;70810;52.038;8.524;2024-02-15T10:20:03;100335.59;;;11.23;100.00
81354;BME280;70810;52.038;8.524;2024-02-15T10:22:50;100342.53;;;11.27;100.00
81354;BME280;70810;52.038;8.524;2024-02-15T10:25:27;100355.03;;;11.28;100.00
81354;BME280;70810;52.038;8.524;2024-02-15T10:28:06;100351.34;;;11.30;100.00
81354;BME280;70810;52.038;8.524;2024-02-15T10:33:34;100354.94;;;11.12;100.00
81354;BME280;70810;52.038;8.524;2024-02-15T10:36:08;100353.13;;;11.12;100.00
81354;BME280;70810;52.038;8.524;2024-02-15T10:38:37;100338.41;;;11.02;100.00
81354;BME280;70810;52.038;8.524;2024-02-15T10:41:05;100337.06;;;10.93;100.00
81354;BME280;70810;52.038;8.524;2024-02-15T10:43:33;100332.00;;;10.87;100.00
81354;BME280;70810;52.038;8.524;2024-02-15T10:46:03;100330.97;;;10.90;100.00
81354;BME280;70810;52.038;8.524;2024-02-15T10:48:31;100334.47;;;10.92;100.00
81354;BME280;70810;52.038;8.524;2024-02-15T10:50:59;100322.28;;;10.85;100.00
81354;BME280;70810;52.038;8.524;2024-02-15T10:53:31;100327.72;;;10.83;100.00
81354;BME280;70810;52.038;8.524;2024-02-15T10:56:08;100327.81;;;10.81;100.00
81354;BME280;70810;52.038;8.524;2024-02-15T10:58:44;100309.31;;;10.75;100.00
81354;BME280;70810;52.038;8.524;2024-02-15T11:01:16;100315.31;;;10.80;100.00
81354;BME280;70810;52.038;8.524;2024-02-15T11:03:51;100311.00;;;10.78;100.00
81354;BME280;70810;52.038;8.524;2024-02-15T11:06:18;100294.97;;;10.76;100.00
81354;BME280;70810;52.038;8.524;2024-02-15T11:08:47;100292.03;;;10.81;100.00
81354;BME280;70810;52.038;8.524;2024-02-15T11:11:16;100294.00;;;10.77;100.00
81354;BME280;70810;52.038;8.524;2024-02-15T11:13:43;100300.91;;;10.83;100.00
81354;BME280;70810;52.038;8.524;2024-02-15T11:16:10;100308.13;;;10.81;100.00
81354;BME280;70810;52.038;8.524;2024-02-15T11:18:42;100314.25;;;10.85;100.00
81354;BME280;70810;52.038;8.524;2024-02-15T11:21:10;100309.03;;;10.81;100.00
81354;BME280;70810;52.038;8.524;2024-02-15T11:23:37;100308.88;;;10.85;100.00
81354;BME280;70810;52.038;8.524;2024-02-15T11:26:08;100304.28;;;10.87;100.00
81354;BME280;70810;52.038;8.524;2024-02-15T11:28:45;100313.34;;;10.84;100.00
81354;BME280;70810;52.038;8.524;2024-02-15T11:34:41;100291.03;;;10.83;100.00
81354;BME280;70810;52.038;8.524;2024-02-15T11:37:09;100261.81;;;10.77;100.00
81354;BME280;70810;52.038;8.524;2024-02-15T11:39:40;100235.03;;;10.76;100.00
81354;BME280;70810;52.038;8.524;2024-02-15T11:42:25;100215.56;;;10.72;100.00
81354;BME280;70810;52.038;8.524;2024-02-15T11:45:04;100217.31;;;10.73;100.00
81354;BME280;70810;52.038;8.524;2024-02-15T11:47:36;100212.66;;;10.77;100.00
81354;BME280;70810;52.038;8.524;2024-02-15T11:50:05;100202.22;;;10.71;100.00
81354;BME280;70810;52.038;8.524;2024-02-15T11:52:38;100216.81;;;10.82;100.00
81354;BME280;70810;52.038;8.524;2024-02-15T11:55:05;100205.16;;;10.83;100.00
81354;BME280;70810;52.038;8.524;2024-02-15T11:57:36;100209.19;;;10.92;100.00
81354;BME280;70810;52.038;8.524;2024-02-15T12:00:22;100200.13;;;10.95;100.00
81354;BME280;70810;52.038;8.524;2024-02-15T12:03:05;100211.22;;;11.05;100.00
81354;BME280;70810;52.038;8.524;2024-02-15T12:05:49;100213.38;;;11.15;100.00
81354;BME280;70810;52.038;8.524;2024-02-15T12:08:34;100217.78;;;11.16;100.00
81354;BME280;70810;52.038;8.524;2024-02-15T12:11:18;100216.53;;;11.24;100.00
81354;BME280;70810;52.038;8.524;2024-02-15T12:14:03;100217.94;;;11.31;100.00
81354;BME280;70810;52.038;8.524;2024-02-15T12:16:58;100223.22;;;11.32;100.00
81354;BME280;70810;52.038;8.524;2024-02-15T12:19:44;100216.88;;;11.33;100.00
81354;BME280;70810;52.038;8.524;2024-02-15T12:22:11;100224.38;;;11.44;100.00
81354;BME280;70810;52.038;8.524;2024-02-15T12:24:38;100227.53;;;11.52;100.00
81354;BME280;70810;52.038;8.524;2024-02-15T12:27:05;100230.38;;;11.49;100.00
81354;BME280;70810;52.038;8.524;2024-02-15T12:29:33;100227.88;;;11.62;99.84
81354;BME280;70810;52.038;8.524;2024-02-15T12:32:06;100232.25;;;11.65;99.75
81354;BME280;70810;52.038;8.524;2024-02-15T12:34:45;100228.31;;;11.54;100.00
81354;BME280;70810;52.038;8.524;2024-02-15T12:37:13;100236.22;;;11.57;100.00
81354;BME280;70810;52.038;8.524;2024-02-15T12:39:45;100235.09;;;11.62;100.00
81354;BME280;70810;52.038;8.524;2024-02-15T12:42:13;100232.25;;;11.65;100.00
81354;BME280;70810;52.038;8.524;2024-02-15T12:44:43;100223.28;;;11.64;100.00
81354;BME280;70810;52.038;8.524;2024-02-15T12:47:19;100237.63;;;11.65;99.69
81354;BME280;70810;52.038;8.524;2024-02-15T12:49:47;100230.78;;;11.75;99.70
81354;BME280;70810;52.038;8.524;2024-02-15T12:52:35;100217.00;;;11.81;99.59
81354;BME280;70810;52.038;8.524;2024-02-15T12:55:21;100224.34;;;12.11;98.25
81354;BME280;70810;52.038;8.524;2024-02-15T12:57:50;100221.50;;;12.14;97.36
81354;BME280;70810;52.038;8.524;2024-02-15T13:00:22;100204.56;;;12.44;96.17
81354;BME280;70810;52.038;8.524;2024-02-15T13:03:01;100181.50;;;12.40;95.28
81354;BME280;70810;52.038;8.524;2024-02-15T13:05:30;100218.97;;;12.43;95.35
81354;BME280;70810;52.038;8.524;2024-02-15T13:07:58;100219.16;;;12.40;95.27
81354;BME280;70810;52.038;8.524;2024-02-15T13:10:24;100210.19;;;12.55;95.05
81354;BME280;70810;52.038;8.524;2024-02-15T13:12:58;100194.66;;;12.60;93.82